Main page
METAR-TAF:

METAR-TAF

Airports :

Fort Stockton–Pecos County Airport

Fort Stockton, Texas, United States

latitude: 30-54-43N, longitude: 102-55-00W, elevation: 3008 ft

METAR: missing

Time: 09:20 (14:20 UTC)

Forecast

The report was made 3 hours and 0 minutes ago, at 11:20 UTC
Forecast valid from 17 at 12 UTC to 18 at 12 UTC
Wind 13 mph from the Southeast
Visibility: 6 miles
Clear sky
From 17 at 2000 UTC
Wind 21 mph from the East/Southeast
Visibility: 6 miles
Scattered clouds at a height of 25000 ft
From 18 at 0800 UTC
Wind 14 mph from the East
Visibility: 6 miles
Broken clouds at a height of 25000 ft

TAF: KFST 171120Z 1712/1812 14011KT P6SM SKC FM172000 12018KT P6SM SCT250 FM180800 08012KT P6SM BKN250

Weather observations and forecasts of more than 4000 airports (METAR and TAF reports).

The available stations are represented by yellow and red dots on the map.

Hover mouse over dot to see the name of the station.

Then click to see weather observations and forecasts.

To change the map : click on the green buttons with a black cross to zoom in, on the green button with a dash to zoom out, or on the green arrows for adjacent maps.


METAR-TAF: